Time;durP1;ratioP1;P1;durP2;ratioP2;P2;SDS_P1;SDS_P2;PMS_P1;PMS_P2;Temp;Humidity;BMP_temperature;BMP_pressure;BME280_temperature;BME280_humidity;BME280_pressure;Samples;Min_cycle;Max_cycle;Signal;HPM_P1;HPM_P2
2021/01/28 00:01:33;;;;;;;16.40;11.15;;;;;;;;;;5090004;28;20024;-80
2021/01/28 00:03:59;;;;;;;15.80;10.60;;;;;;;;;;5087962;28;20040;-84
2021/01/28 00:06:25;;;;;;;14.95;10.50;;;;;;;;;;5088003;28;20355;-82
2021/01/28 00:08:51;;;;;;;16.35;11.00;;;;;;;;;;5088241;28;20107;-80
2021/01/28 00:11:17;;;;;;;15.43;11.00;;;;;;;;;;5087927;28;20492;-81
2021/01/28 00:13:43;;;;;;;14.65;10.57;;;;;;;;;;5088135;28;20335;-81
2021/01/28 00:16:09;;;;;;;15.68;10.50;;;;;;;;;;5086900;28;20089;-82
2021/01/28 00:18:35;;;;;;;15.07;10.70;;;;;;;;;;5089960;28;20039;-81
2021/01/28 00:21:01;;;;;;;17.55;10.38;;;;;;;;;;5088597;28;20746;-80
2021/01/28 00:23:27;;;;;;;15.63;10.27;;;;;;;;;;5089297;28;20097;-79
2021/01/28 00:25:53;;;;;;;15.90;10.63;;;;;;;;;;5086676;28;20101;-80
2021/01/28 00:28:21;;;;;;;14.45;9.98;;;;;;;;;;5087930;28;20458;-82
2021/01/28 00:30:49;;;;;;;15.65;10.38;;;;;;;;;;5087891;28;20073;-84
2021/01/28 00:33:17;;;;;;;13.45;9.30;;;;;;;;;;5087487;28;20055;-83
2021/01/28 00:35:44;;;;;;;13.25;9.32;;;;;;;;;;5087439;28;20093;-81
2021/01/28 00:38:11;;;;;;;12.77;9.02;;;;;;;;;;5087958;28;20020;-84
2021/01/28 00:40:38;;;;;;;13.45;9.40;;;;;;;;;;5087275;28;20036;-81
2021/01/28 00:43:04;;;;;;;12.65;8.52;;;;;;;;;;5087005;28;20027;-82
2021/01/28 00:45:31;;;;;;;12.55;8.60;;;;;;;;;;5081760;28;20024;-82
2021/01/28 00:47:59;;;;;;;12.93;9.05;;;;;;;;;;5087431;28;20131;-80
2021/01/28 00:50:26;;;;;;;12.48;9.27;;;;;;;;;;5079345;28;20039;-82
2021/01/28 00:52:52;;;;;;;13.45;9.25;;;;;;;;;;5073193;28;20089;-84
2021/01/28 00:55:19;;;;;;;12.88;8.95;;;;;;;;;;5075018;28;20123;-80
2021/01/28 00:57:45;;;;;;;12.35;8.82;;;;;;;;;;5067688;28;20028;-80
2021/01/28 01:00:16;;;;;;;12.73;8.65;;;;;;;;;;5067407;28;20322;-80
2021/01/28 01:02:43;;;;;;;11.95;8.20;;;;;;;;;;5068864;28;20028;-81
2021/01/28 01:05:10;;;;;;;10.52;7.30;;;;;;;;;;5067093;28;20040;-81
2021/01/28 01:07:36;;;;;;;10.55;7.10;;;;;;;;;;5067412;28;20478;-83
2021/01/28 01:10:03;;;;;;;10.75;7.50;;;;;;;;;;5066852;28;20104;-82
2021/01/28 01:12:31;;;;;;;11.50;7.57;;;;;;;;;;5066678;28;20036;-80
2021/01/28 01:14:57;;;;;;;11.07;7.85;;;;;;;;;;5067170;28;20082;-82
2021/01/28 01:17:23;;;;;;;11.13;7.65;;;;;;;;;;5068093;28;20040;-80
2021/01/28 01:19:49;;;;;;;11.65;7.78;;;;;;;;;;5067152;28;20035;-79
2021/01/28 01:22:15;;;;;;;12.05;7.63;;;;;;;;;;5068462;28;20024;-81
2021/01/28 01:24:41;;;;;;;10.73;7.30;;;;;;;;;;5066965;28;20436;-84
2021/01/28 01:27:07;;;;;;;10.23;7.15;;;;;;;;;;5067042;28;20125;-81
2021/01/28 01:29:33;;;;;;;11.10;7.55;;;;;;;;;;5067206;28;20463;-81
2021/01/28 01:32:00;;;;;;;11.07;8.00;;;;;;;;;;5067300;28;20029;-83
2021/01/28 01:34:26;;;;;;;10.55;7.78;;;;;;;;;;5066331;28;20082;-82
2021/01/28 01:36:52;;;;;;;12.82;8.77;;;;;;;;;;5066967;28;20025;-80
2021/01/28 01:39:18;;;;;;;11.20;7.93;;;;;;;;;;5066877;28;20376;-82
2021/01/28 01:41:44;;;;;;;11.75;7.50;;;;;;;;;;5066676;28;20025;-81
2021/01/28 01:44:10;;;;;;;11.23;7.63;;;;;;;;;;5067113;28;20025;-83
2021/01/28 01:46:36;;;;;;;11.93;7.65;;;;;;;;;;5066839;28;20035;-81
2021/01/28 01:49:05;;;;;;;11.05;7.53;;;;;;;;;;5066641;28;20027;-80
2021/01/28 01:51:49;;;;;;;11.73;8.10;;;;;;;;;;5066662;28;20112;-81
2021/01/28 01:54:21;;;;;;;11.05;7.82;;;;;;;;;;5066595;28;20508;-81
2021/01/28 01:56:54;;;;;;;11.35;8.30;;;;;;;;;;5067996;28;20024;-82
2021/01/28 01:59:23;;;;;;;11.07;7.55;;;;;;;;;;5067932;28;20104;-81
2021/01/28 02:01:51;;;;;;;13.57;8.10;;;;;;;;;;5066465;28;20142;-81
2021/01/28 02:04:18;;;;;;;11.80;8.30;;;;;;;;;;5066703;28;20032;-80
2021/01/28 02:06:44;;;;;;;11.45;7.43;;;;;;;;;;5075182;28;20497;-80
2021/01/28 02:09:11;;;;;;;11.52;8.10;;;;;;;;;;5084454;28;20028;-80
2021/01/28 02:11:37;;;;;;;10.23;6.90;;;;;;;;;;5087251;28;20021;-81
2021/01/28 02:14:04;;;;;;;12.43;7.95;;;;;;;;;;5087269;28;20021;-79
2021/01/28 02:16:34;;;;;;;11.70;8.35;;;;;;;;;;5086646;28;20024;-80
2021/01/28 02:19:01;;;;;;;13.18;8.43;;;;;;;;;;5086738;28;20061;-80
2021/01/28 02:21:27;;;;;;;12.38;8.68;;;;;;;;;;5087285;28;20028;-80
2021/01/28 02:23:56;;;;;;;12.00;8.38;;;;;;;;;;5087040;28;20039;-82
2021/01/28 02:26:22;;;;;;;12.30;8.63;;;;;;;;;;5089103;28;20036;-80
2021/01/28 02:28:48;;;;;;;11.43;8.07;;;;;;;;;;5090371;28;20115;-80
2021/01/28 02:31:15;;;;;;;10.63;7.55;;;;;;;;;;5090335;28;20110;-81
2021/01/28 02:33:52;;;;;;;10.52;7.63;;;;;;;;;;5090236;28;20043;-80
2021/01/28 02:36:18;;;;;;;;;;;;;;;;;;5091985;28;20099;-80
2021/01/28 02:38:44;;;;;;;10.75;7.60;;;;;;;;;;5090311;28;20007;-81
2021/01/28 02:41:11;;;;;;;10.90;7.70;;;;;;;;;;5089998;28;20085;-81
2021/01/28 02:43:37;;;;;;;12.40;8.27;;;;;;;;;;5090408;28;20032;-80
2021/01/28 02:46:08;;;;;;;12.20;7.95;;;;;;;;;;5090000;28;20070;-80
2021/01/28 02:48:34;;;;;;;11.75;8.02;;;;;;;;;;5090088;28;20717;-81
2021/01/28 02:51:00;;;;;;;11.75;8.02;;;;;;;;;;5089830;28;20024;-80
2021/01/28 02:53:26;;;;;;;12.07;8.48;;;;;;;;;;5090112;28;20108;-84
2021/01/28 02:55:52;;;;;;;13.45;8.68;;;;;;;;;;5085641;28;20203;-80
2021/01/28 02:58:18;;;;;;;14.38;9.18;;;;;;;;;;5093224;28;20182;-80
2021/01/28 03:00:45;;;;;;;13.65;8.73;;;;;;;;;;5111955;28;20202;-80
2021/01/28 03:03:11;;;;;;;14.88;9.25;;;;;;;;;;5112713;28;20042;-80
2021/01/28 03:05:37;;;;;;;12.63;8.70;;;;;;;;;;5112343;28;20053;-80
2021/01/28 03:08:04;;;;;;;13.73;8.90;;;;;;;;;;5112559;28;20117;-81
2021/01/28 03:10:30;;;;;;;14.80;9.07;;;;;;;;;;5112009;28;20049;-80
2021/01/28 03:12:56;;;;;;;14.15;8.73;;;;;;;;;;5112647;28;20092;-81
2021/01/28 03:15:23;;;;;;;14.75;8.88;;;;;;;;;;5112378;28;20020;-80
2021/01/28 03:17:51;;;;;;;14.15;9.05;;;;;;;;;;5113722;28;20024;-81
2021/01/28 03:20:17;;;;;;;13.95;9.20;;;;;;;;;;5113846;27;20020;-79
2021/01/28 03:22:43;;;;;;;14.63;8.73;;;;;;;;;;5112357;28;20028;-80
2021/01/28 03:25:10;;;;;;;13.50;9.10;;;;;;;;;;5111887;28;20085;-81
2021/01/28 03:27:36;;;;;;;15.52;9.93;;;;;;;;;;5112116;28;20104;-80
2021/01/28 03:30:05;;;;;;;14.75;9.82;;;;;;;;;;5112272;28;20364;-80
2021/01/28 03:32:31;;;;;;;16.67;10.02;;;;;;;;;;5111911;28;20015;-79
2021/01/28 03:34:57;;;;;;;14.80;9.95;;;;;;;;;;5111840;28;20028;-81
2021/01/28 03:37:22;;;;;;;14.07;9.95;;;;;;;;;;5111519;28;20529;-82
2021/01/28 03:39:48;;;;;;;16.17;10.32;;;;;;;;;;5111788;28;20027;-81
2021/01/28 03:42:14;;;;;;;15.32;10.20;;;;;;;;;;5111869;28;20092;-81
2021/01/28 03:44:40;;;;;;;17.40;10.85;;;;;;;;;;5111711;28;20027;-80
2021/01/28 03:47:06;;;;;;;15.80;10.90;;;;;;;;;;5111620;28;20051;-82
2021/01/28 03:49:32;;;;;;;15.50;10.63;;;;;;;;;;5111605;28;20172;-81
2021/01/28 03:51:58;;;;;;;16.77;10.80;;;;;;;;;;5111543;28;20115;-81
2021/01/28 03:54:24;;;;;;;17.55;10.70;;;;;;;;;;5111030;28;20409;-82
2021/01/28 03:56:50;;;;;;;14.85;10.50;;;;;;;;;;5111744;28;20023;-81
2021/01/28 03:59:16;;;;;;;17.20;10.23;;;;;;;;;;5111825;28;20028;-81
2021/01/28 04:01:42;;;;;;;13.88;9.60;;;;;;;;;;5110654;28;20024;-81
2021/01/28 04:04:08;;;;;;;15.63;10.70;;;;;;;;;;5108364;28;20031;-83
2021/01/28 04:06:34;;;;;;;17.20;10.07;;;;;;;;;;5102561;28;20573;-81
2021/01/28 04:09:01;;;;;;;17.63;10.27;;;;;;;;;;5108258;28;20111;-80
2021/01/28 04:11:26;;;;;;;17.40;10.48;;;;;;;;;;5109018;28;20404;-83
2021/01/28 04:13:53;;;;;;;17.52;10.73;;;;;;;;;;5109030;28;20011;-81
2021/01/28 04:16:18;;;;;;;16.52;11.00;;;;;;;;;;5108399;28;20027;-79
2021/01/28 04:18:45;;;;;;;14.57;10.30;;;;;;;;;;5108885;28;20031;-81
2021/01/28 04:21:11;;;;;;;14.48;9.98;;;;;;;;;;5108507;28;20365;-81
2021/01/28 04:23:36;;;;;;;14.90;10.48;;;;;;;;;;5108430;28;20099;-82
2021/01/28 04:26:03;;;;;;;16.58;10.90;;;;;;;;;;5108121;28;20065;-80
2021/01/28 04:28:29;;;;;;;16.73;11.52;;;;;;;;;;5108584;28;20072;-81
2021/01/28 04:30:55;;;;;;;17.52;11.35;;;;;;;;;;5108313;28;20131;-80
2021/01/28 04:33:21;;;;;;;16.23;10.75;;;;;;;;;;5108438;28;20120;-81
2021/01/28 04:35:47;;;;;;;18.80;11.20;;;;;;;;;;5108200;28;20488;-83
2021/01/28 04:38:13;;;;;;;16.15;11.00;;;;;;;;;;5108268;28;20026;-82
2021/01/28 04:40:52;;;;;;;19.35;12.20;;;;;;;;;;5108432;28;20076;-80
2021/01/28 04:43:18;;;;;;;19.42;12.45;;;;;;;;;;5108787;28;20019;-80
2021/01/28 04:45:44;;;;;;;21.52;13.00;;;;;;;;;;5107251;28;20027;-80
2021/01/28 04:48:11;;;;;;;18.95;12.35;;;;;;;;;;5107800;28;20049;-80
2021/01/28 04:50:39;;;;;;;21.65;13.10;;;;;;;;;;5108139;28;20020;-79
2021/01/28 04:53:12;;;;;;;20.58;12.65;;;;;;;;;;5107757;28;20080;-80
2021/01/28 04:55:42;;;;;;;20.27;12.38;;;;;;;;;;5107750;28;20046;-81
2021/01/28 04:58:09;;;;;;;20.48;12.70;;;;;;;;;;5108224;28;20047;-80
2021/01/28 05:00:35;;;;;;;22.10;12.10;;;;;;;;;;5107820;28;20445;-81
2021/01/28 05:03:05;;;;;;;20.40;12.85;;;;;;;;;;5108207;28;20024;-84
2021/01/28 05:05:31;;;;;;;20.73;12.60;;;;;;;;;;5107694;28;20455;-81
2021/01/28 05:07:57;;;;;;;18.95;11.43;;;;;;;;;;5107730;28;20065;-80
2021/01/28 05:10:24;;;;;;;20.05;11.95;;;;;;;;;;5108221;28;20077;-80
2021/01/28 05:12:59;;;;;;;16.92;10.93;;;;;;;;;;5108024;28;20036;-80
2021/01/28 05:15:33;;;;;;;18.08;11.23;;;;;;;;;;5108673;28;20016;-80
2021/01/28 05:18:04;;;;;;;17.00;10.85;;;;;;;;;;5109402;28;20031;-82
2021/01/28 05:20:31;;;;;;;16.42;10.88;;;;;;;;;;5107683;28;20349;-80
2021/01/28 05:22:58;;;;;;;16.73;10.85;;;;;;;;;;5108592;28;20051;-80
2021/01/28 05:25:27;;;;;;;15.50;10.45;;;;;;;;;;5107717;28;20032;-80
2021/01/28 05:27:53;;;;;;;17.30;10.05;;;;;;;;;;5107499;28;20034;-81
2021/01/28 05:30:36;;;;;;;17.15;10.32;;;;;;;;;;5107396;28;20024;-80
2021/01/28 05:33:03;;;;;;;16.75;10.13;;;;;;;;;;5106929;28;20020;-81
2021/01/28 05:35:33;;;;;;;14.80;9.60;;;;;;;;;;5087189;28;20017;-80
2021/01/28 05:38:08;;;;;;;15.65;10.25;;;;;;;;;;5088540;28;20035;-81
2021/01/28 05:40:34;;;;;;;16.23;10.50;;;;;;;;;;5087436;28;20110;-80
2021/01/28 05:43:00;;;;;;;18.98;10.93;;;;;;;;;;5087338;28;20063;-82
2021/01/28 05:45:29;;;;;;;16.30;10.27;;;;;;;;;;5086738;28;20032;-81
2021/01/28 05:47:55;;;;;;;18.55;10.43;;;;;;;;;;5087525;28;20382;-80
2021/01/28 05:50:24;;;;;;;17.48;11.27;;;;;;;;;;5085921;28;20059;-81
2021/01/28 05:52:50;;;;;;;15.75;10.15;;;;;;;;;;5086066;28;20108;-80
2021/01/28 05:55:18;;;;;;;15.43;10.05;;;;;;;;;;5087082;28;20040;-81
2021/01/28 05:57:44;;;;;;;;;;;;;;;;;;5087764;28;20050;-81
2021/01/28 06:00:16;;;;;;;16.75;10.18;;;;;;;;;;5101873;28;19908;-85
2021/01/28 06:03:01;;;;;;;19.17;10.65;;;;;;;;;;5111745;28;20027;-81
2021/01/28 06:05:36;;;;;;;18.27;10.73;;;;;;;;;;5110982;28;20042;-83
2021/01/28 06:08:02;;;;;;;17.00;10.18;;;;;;;;;;5111373;28;20034;-81
2021/01/28 06:10:44;;;;;;;19.35;11.60;;;;;;;;;;5111649;28;20028;-81
2021/01/28 06:13:29;;;;;;;18.77;11.80;;;;;;;;;;5111480;28;20023;-80
2021/01/28 06:16:07;;;;;;;19.65;11.40;;;;;;;;;;5111273;28;20026;-80
2021/01/28 06:18:51;;;;;;;19.90;10.85;;;;;;;;;;5111669;28;20024;-78
2021/01/28 06:21:36;;;;;;;20.23;11.00;;;;;;;;;;5110848;28;20024;-81
2021/01/28 06:24:08;;;;;;;26.23;11.40;;;;;;;;;;5111083;28;20047;-80
2021/01/28 06:26:40;;;;;;;20.63;11.38;;;;;;;;;;5110674;28;20057;-81
2021/01/28 06:29:18;;;;;;;19.25;10.93;;;;;;;;;;5112143;28;20046;-81
2021/01/28 06:32:03;;;;;;;22.23;11.25;;;;;;;;;;5111029;28;20034;-81
2021/01/28 06:34:47;;;;;;;18.38;10.63;;;;;;;;;;5110951;28;20141;-80
2021/01/28 06:37:13;;;;;;;16.42;10.20;;;;;;;;;;5110873;28;20028;-80
2021/01/28 06:39:42;;;;;;;20.65;10.85;;;;;;;;;;5110741;28;20028;-81
2021/01/28 06:42:14;;;;;;;18.63;10.35;;;;;;;;;;5111092;28;20128;-82
2021/01/28 06:44:43;;;;;;;18.00;10.50;;;;;;;;;;5111645;28;20049;-79
2021/01/28 06:47:20;;;;;;;14.80;8.63;;;;;;;;;;5110735;28;20027;-81
2021/01/28 06:50:05;;;;;;;13.63;7.63;;;;;;;;;;5112342;28;20032;-80
2021/01/28 06:52:31;;;;;;;16.50;9.65;;;;;;;;;;5110230;28;20473;-81
2021/01/28 06:55:05;;;;;;;15.88;10.00;;;;;;;;;;5110253;28;20016;-80
2021/01/28 06:57:46;;;;;;;21.70;10.68;;;;;;;;;;5110742;28;20108;-80
2021/01/28 07:00:12;;;;;;;17.48;11.20;;;;;;;;;;5110634;28;20043;-83
2021/01/28 07:02:47;;;;;;;18.80;10.77;;;;;;;;;;5110642;28;20027;-80
2021/01/28 07:05:20;;;;;;;18.13;10.20;;;;;;;;;;5109702;28;20031;-80
2021/01/28 07:07:49;;;;;;;22.13;11.13;;;;;;;;;;5110200;28;20024;-80
2021/01/28 07:10:21;;;;;;;19.52;10.80;;;;;;;;;;5110118;28;20030;-80
2021/01/28 07:12:49;;;;;;;16.73;10.00;;;;;;;;;;5109627;28;20495;-81
2021/01/28 07:15:16;;;;;;;19.25;10.88;;;;;;;;;;5110058;28;20027;-80
2021/01/28 07:17:45;;;;;;;18.25;11.23;;;;;;;;;;5110583;28;20843;-79
2021/01/28 07:20:30;;;;;;;18.60;11.60;;;;;;;;;;5110331;28;20081;-82
2021/01/28 07:23:14;;;;;;;22.13;13.00;;;;;;;;;;5110197;28;20398;-81
2021/01/28 07:25:40;;;;;;;20.85;12.52;;;;;;;;;;5110163;28;20023;-80
2021/01/28 07:28:26;;;;;;;21.48;11.23;;;;;;;;;;5109614;28;20015;-81
2021/01/28 07:31:12;;;;;;;19.88;10.35;;;;;;;;;;5110009;28;20019;-81
2021/01/28 07:33:41;;;;;;;18.95;10.43;;;;;;;;;;5109836;28;20026;-81
2021/01/28 07:36:13;;;;;;;19.80;11.52;;;;;;;;;;5109499;28;20024;-81
2021/01/28 07:38:42;;;;;;;20.83;11.52;;;;;;;;;;5110248;28;20024;-83
2021/01/28 07:41:08;;;;;;;20.33;9.50;;;;;;;;;;5110086;28;20027;-80
2021/01/28 07:43:36;;;;;;;23.48;11.85;;;;;;;;;;5109790;28;20039;-81
2021/01/28 07:46:02;;;;;;;;;;;;;;;;;;5110134;28;20458;-80
2021/01/28 07:48:29;;;;;;;21.25;10.70;;;;;;;;;;5098290;28;19908;-77
2021/01/28 07:51:15;;;;;;;22.23;11.02;;;;;;;;;;5068506;28;20483;-81
2021/01/28 07:53:48;;;;;;;19.50;10.68;;;;;;;;;;5069276;28;20367;-82
2021/01/28 07:56:33;;;;;;;22.30;12.80;;;;;;;;;;5069601;28;20028;-81
2021/01/28 07:58:59;;;;;;;23.10;11.27;;;;;;;;;;5075373;28;20723;-81
2021/01/28 08:01:25;;;;;;;23.15;13.90;;;;;;;;;;5090075;28;20028;-80
2021/01/28 08:04:02;;;;;;;21.80;13.18;;;;;;;;;;5089397;28;20211;-84
2021/01/28 08:06:28;;;;;;;20.95;10.38;;;;;;;;;;5088836;28;20020;-82
2021/01/28 08:09:08;;;;;;;15.55;9.70;;;;;;;;;;5089278;28;20023;-82
2021/01/28 08:11:34;;;;;;;20.48;10.45;;;;;;;;;;5089319;28;20032;-82
2021/01/28 08:14:01;;;;;;;20.45;9.90;;;;;;;;;;5089317;28;20020;-82
2021/01/28 08:16:27;;;;;;;18.85;10.95;;;;;;;;;;5089117;28;20123;-81
2021/01/28 08:19:02;;;;;;;17.25;10.20;;;;;;;;;;5088769;28;20020;-82
2021/01/28 08:21:29;;;;;;;17.00;9.70;;;;;;;;;;5088175;28;20247;-81
2021/01/28 08:23:55;;;;;;;17.27;10.23;;;;;;;;;;5087639;28;20032;-79
2021/01/28 08:26:29;;;;;;;15.88;10.02;;;;;;;;;;5088214;28;20039;-81
2021/01/28 08:29:06;;;;;;;20.52;10.70;;;;;;;;;;5092773;28;20015;-82
2021/01/28 08:31:32;;;;;;;;;;;;;;;;;;5103336;28;20046;-85
2021/01/28 08:34:00;;;;;;;23.42;10.70;;;;;;;;;;5088117;28;19924;-80
2021/01/28 08:36:41;;;;;;;20.55;10.43;;;;;;;;;;5089590;28;20047;-80
2021/01/28 08:39:10;;;;;;;17.27;9.77;;;;;;;;;;5088431;28;20028;-83
2021/01/28 08:41:37;;;;;;;18.75;7.45;;;;;;;;;;5088701;28;20032;-84
2021/01/28 08:44:06;;;;;;;18.55;6.43;;;;;;;;;;5088723;28;20125;-82
2021/01/28 08:46:32;;;;;;;12.32;6.53;;;;;;;;;;5089667;28;20502;-84
2021/01/28 08:49:02;;;;;;;14.95;7.50;;;;;;;;;;5088046;28;20069;-79
2021/01/28 08:51:28;;;;;;;12.77;6.03;;;;;;;;;;5087787;28;20644;-82
2021/01/28 08:54:03;;;;;;;13.38;5.95;;;;;;;;;;5087992;28;20024;-80
2021/01/28 08:56:36;;;;;;;15.52;6.97;;;;;;;;;;5086816;28;20040;-81
2021/01/28 08:59:05;;;;;;;13.80;6.38;;;;;;;;;;5087412;28;20024;-82
2021/01/28 09:01:35;;;;;;;17.33;6.85;;;;;;;;;;5088519;28;20134;-80
2021/01/28 09:04:03;;;;;;;16.63;7.10;;;;;;;;;;5088012;28;20382;-80
2021/01/28 09:06:37;;;;;;;15.52;8.13;;;;;;;;;;5086588;28;20039;-80
2021/01/28 09:09:13;;;;;;;17.85;8.10;;;;;;;;;;5088320;28;20036;-81
2021/01/28 09:11:39;;;;;;;17.92;8.85;;;;;;;;;;5087031;28;20386;-83
2021/01/28 09:14:17;;;;;;;16.25;8.10;;;;;;;;;;5087131;28;20132;-80
2021/01/28 09:16:57;;;;;;;10.48;5.35;;;;;;;;;;5086952;28;20024;-80
2021/01/28 09:19:24;;;;;;;11.57;5.70;;;;;;;;;;5086361;28;20427;-80
2021/01/28 09:21:55;;;;;;;9.70;4.75;;;;;;;;;;5086661;28;20024;-79
2021/01/28 09:24:25;;;;;;;9.32;4.50;;;;;;;;;;5087721;28;20032;-82
2021/01/28 09:27:04;;;;;;;10.32;5.13;;;;;;;;;;5087025;28;20024;-82
2021/01/28 09:29:38;;;;;;;10.55;5.60;;;;;;;;;;5088404;28;20024;-88
2021/01/28 09:32:27;;;;;;;13.30;5.22;;;;;;;;;;5088338;28;20095;-78
2021/01/28 09:35:13;;;;;;;10.98;4.90;;;;;;;;;;5076004;28;20059;-78
2021/01/28 09:37:41;;;;;;;10.73;4.53;;;;;;;;;;5093069;28;20117;-82
2021/01/28 09:40:34;;;;;;;15.48;4.60;;;;;;;;;;5076140;28;20025;-81
2021/01/28 09:43:19;;;;;;;7.47;3.38;;;;;;;;;;5067952;28;20528;-81
2021/01/28 09:46:00;;;;;;;7.72;3.67;;;;;;;;;;5071243;28;20036;-79
2021/01/28 09:48:26;;;;;;;9.68;3.95;;;;;;;;;;5072393;28;20383;-79
2021/01/28 09:50:52;;;;;;;7.65;3.45;;;;;;;;;;5071463;28;20017;-79
2021/01/28 09:53:18;;;;;;;10.43;3.65;;;;;;;;;;5074699;28;20016;-80
2021/01/28 09:55:44;;;;;;;7.07;3.40;;;;;;;;;;5072761;28;20701;-80
2021/01/28 09:58:10;;;;;;;7.88;3.28;;;;;;;;;;5075522;28;20028;-84
2021/01/28 10:00:36;;;;;;;8.98;3.25;;;;;;;;;;5074006;28;20078;-85
2021/01/28 10:03:03;;;;;;;7.57;3.17;;;;;;;;;;5073641;28;20029;-83
2021/01/28 10:05:30;;;;;;;6.65;3.03;;;;;;;;;;5075113;28;20060;-81
2021/01/28 10:07:57;;;;;;;10.65;3.92;;;;;;;;;;5071337;28;20035;-81
2021/01/28 10:10:24;;;;;;;9.45;3.55;;;;;;;;;;5069969;28;20127;-79
2021/01/28 10:12:52;;;;;;;9.35;4.03;;;;;;;;;;5070510;28;20017;-80
2021/01/28 10:15:18;;;;;;;;;;;;;;;;;;5070660;28;20036;-80
2021/01/28 10:17:44;;;;;;;8.77;4.45;;;;;;;;;;5071504;28;19930;-83
2021/01/28 10:20:11;;;;;;;7.32;4.35;;;;;;;;;;5072087;28;20554;-80
2021/01/28 10:22:38;;;;;;;7.30;4.35;;;;;;;;;;5071907;28;20025;-79
2021/01/28 10:25:05;;;;;;;9.88;4.43;;;;;;;;;;5071158;28;20126;-80
2021/01/28 10:27:31;;;;;;;12.10;5.20;;;;;;;;;;5070861;28;20029;-79
2021/01/28 10:29:57;;;;;;;9.85;4.15;;;;;;;;;;5071646;28;20058;-80
2021/01/28 10:32:23;;;;;;;7.47;4.00;;;;;;;;;;5083308;28;20551;-81
2021/01/28 10:34:53;;;;;;;6.15;4.15;;;;;;;;;;5090763;28;20758;-79
2021/01/28 10:37:19;;;;;;;7.65;3.95;;;;;;;;;;5090798;28;20031;-81
2021/01/28 10:39:45;;;;;;;7.93;3.55;;;;;;;;;;5090770;28;20105;-78
2021/01/28 10:42:32;;;;;;;9.10;4.00;;;;;;;;;;5091826;28;20061;-80
2021/01/28 10:44:59;;;;;;;7.93;3.80;;;;;;;;;;5092164;28;20027;-80
2021/01/28 10:47:25;;;;;;;6.10;3.10;;;;;;;;;;5089937;28;20028;-80
2021/01/28 10:49:51;;;;;;;5.80;3.45;;;;;;;;;;5090591;28;20024;-79
2021/01/28 10:52:17;;;;;;;6.72;3.40;;;;;;;;;;5090850;28;20070;-80
2021/01/28 10:54:43;;;;;;;5.30;3.08;;;;;;;;;;5082530;28;20446;-78
2021/01/28 10:57:09;;;;;;;6.90;3.05;;;;;;;;;;5090020;28;20477;-80
2021/01/28 10:59:35;;;;;;;20.30;9.90;;;;;;;;;;5090533;28;20060;-79
2021/01/28 11:02:01;;;;;;;6.00;3.33;;;;;;;;;;5089318;28;20497;-80
2021/01/28 11:04:29;;;;;;;8.38;3.15;;;;;;;;;;5080824;28;20042;-80
2021/01/28 11:06:58;;;;;;;8.15;4.80;;;;;;;;;;5089806;28;20082;-80
2021/01/28 11:09:24;;;;;;;7.03;3.30;;;;;;;;;;5089978;28;20023;-79
2021/01/28 11:11:50;;;;;;;7.18;3.53;;;;;;;;;;5089821;28;20020;-82
2021/01/28 11:14:16;;;;;;;5.85;3.47;;;;;;;;;;5090513;28;20447;-80
2021/01/28 11:16:42;;;;;;;7.10;3.63;;;;;;;;;;5090103;28;20123;-80
2021/01/28 11:19:08;;;;;;;9.48;5.10;;;;;;;;;;5089907;28;20024;-80
2021/01/28 11:21:34;;;;;;;7.68;3.88;;;;;;;;;;5090192;28;20028;-80
2021/01/28 11:24:00;;;;;;;7.20;3.60;;;;;;;;;;5089426;28;20032;-79
2021/01/28 11:26:26;;;;;;;7.18;3.60;;;;;;;;;;5089477;28;20028;-81
2021/01/28 11:28:54;;;;;;;7.72;4.13;;;;;;;;;;5089872;28;20024;-81
2021/01/28 11:31:20;;;;;;;9.88;5.65;;;;;;;;;;5089117;28;20031;-80
2021/01/28 11:33:46;;;;;;;11.48;5.20;;;;;;;;;;5080520;28;20075;-79
2021/01/28 11:36:12;;;;;;;8.43;4.55;;;;;;;;;;5069150;28;20032;-77
2021/01/28 11:38:38;;;;;;;11.73;4.55;;;;;;;;;;5099996;28;20034;-80
2021/01/28 11:41:05;;;;;;;6.53;2.80;;;;;;;;;;5109739;28;20413;-79
2021/01/28 11:43:31;;;;;;;5.47;2.78;;;;;;;;;;5109477;28;20031;-79
2021/01/28 11:45:58;;;;;;;7.05;2.50;;;;;;;;;;5109457;28;20051;-78
2021/01/28 11:48:24;;;;;;;6.32;2.80;;;;;;;;;;5109929;28;20079;-78
2021/01/28 11:50:50;;;;;;;10.90;3.20;;;;;;;;;;5111767;28;20497;-80
2021/01/28 11:53:16;;;;;;;5.72;2.53;;;;;;;;;;5109842;28;20070;-80
2021/01/28 11:55:42;;;;;;;8.77;3.15;;;;;;;;;;5110771;28;20022;-80
2021/01/28 11:58:08;;;;;;;10.50;3.00;;;;;;;;;;5112631;28;20098;-82
2021/01/28 12:00:34;;;;;;;6.75;2.50;;;;;;;;;;5110780;28;20028;-79
2021/01/28 12:03:00;;;;;;;9.18;2.97;;;;;;;;;;5111100;28;20043;-76
2021/01/28 12:05:27;;;;;;;6.85;2.47;;;;;;;;;;5110474;28;20035;-74
2021/01/28 12:07:54;;;;;;;6.90;2.33;;;;;;;;;;5111552;28;20024;-74
2021/01/28 12:10:21;;;;;;;4.78;2.00;;;;;;;;;;5110597;28;20034;-78
2021/01/28 12:12:48;;;;;;;6.90;1.98;;;;;;;;;;5109656;28;20020;-77
2021/01/28 12:15:14;;;;;;;3.95;1.80;;;;;;;;;;5109675;28;20024;-77
2021/01/28 12:17:40;;;;;;;3.97;1.85;;;;;;;;;;5109091;28;20085;-77
2021/01/28 12:20:07;;;;;;;4.70;1.90;;;;;;;;;;5110586;28;20084;-75
2021/01/28 12:22:33;;;;;;;3.05;1.88;;;;;;;;;;5110123;28;20393;-80
2021/01/28 12:24:59;;;;;;;5.35;2.05;;;;;;;;;;5109201;28;20027;-79
2021/01/28 12:27:26;;;;;;;2.55;1.50;;;;;;;;;;5109296;28;20036;-78
2021/01/28 12:29:52;;;;;;;4.30;1.90;;;;;;;;;;5109433;28;20015;-74
2021/01/28 12:32:18;;;;;;;2.83;1.67;;;;;;;;;;5109749;28;20037;-78
2021/01/28 12:34:44;;;;;;;6.22;1.90;;;;;;;;;;5109814;28;20019;-79
2021/01/28 12:37:10;;;;;;;3.75;1.50;;;;;;;;;;5108834;28;20020;-76
2021/01/28 12:39:36;;;;;;;3.85;1.90;;;;;;;;;;5108530;28;20023;-79
2021/01/28 12:42:02;;;;;;;4.47;1.73;;;;;;;;;;5108621;28;20027;-78
2021/01/28 12:44:28;;;;;;;4.70;1.50;;;;;;;;;;5108180;28;20024;-79
2021/01/28 12:46:55;;;;;;;4.15;2.10;;;;;;;;;;5109031;28;20120;-78
2021/01/28 12:49:21;;;;;;;5.60;2.40;;;;;;;;;;5109486;28;20020;-79
2021/01/28 12:51:47;;;;;;;5.57;2.88;;;;;;;;;;5109239;28;20020;-78
2021/01/28 12:54:13;;;;;;;5.53;2.60;;;;;;;;;;5108624;28;20119;-78
2021/01/28 12:56:39;;;;;;;4.65;2.13;;;;;;;;;;5109620;28;20024;-77
2021/01/28 12:59:05;;;;;;;7.53;5.57;;;;;;;;;;5108594;28;20512;-76
2021/01/28 13:01:31;;;;;;;6.93;2.60;;;;;;;;;;5108629;28;20059;-79
2021/01/28 13:03:57;;;;;;;4.95;3.33;;;;;;;;;;5108407;28;20047;-81
2021/01/28 13:06:23;;;;;;;7.25;4.50;;;;;;;;;;5108101;28;20023;-80
2021/01/28 13:08:49;;;;;;;4.30;2.55;;;;;;;;;;5108177;28;20032;-77
2021/01/28 13:11:19;;;;;;;6.57;2.42;;;;;;;;;;5108001;28;20030;-78
2021/01/28 13:13:44;;;;;;;4.93;1.88;;;;;;;;;;5108975;28;20586;-79
2021/01/28 13:16:10;;;;;;;4.47;2.15;;;;;;;;;;5108168;28;20127;-78
2021/01/28 13:18:36;;;;;;;4.55;1.90;;;;;;;;;;5108530;28;20016;-77
2021/01/28 13:21:03;;;;;;;4.65;1.73;;;;;;;;;;5108490;28;20020;-77
2021/01/28 13:23:29;;;;;;;6.03;3.00;;;;;;;;;;5108847;28;20019;-78
2021/01/28 13:25:55;;;;;;;6.45;3.17;;;;;;;;;;5108258;28;20536;-78
2021/01/28 13:28:21;;;;;;;8.20;3.65;;;;;;;;;;5109701;28;20019;-77
2021/01/28 13:30:47;;;;;;;4.75;1.65;;;;;;;;;;5108268;28;20019;-78
2021/01/28 13:33:13;;;;;;;6.15;2.40;;;;;;;;;;5108255;28;20046;-78
2021/01/28 13:35:39;;;;;;;4.90;2.70;;;;;;;;;;5108136;28;20201;-78
2021/01/28 13:38:05;;;;;;;5.35;3.17;;;;;;;;;;5108640;28;20760;-78
2021/01/28 13:40:32;;;;;;;7.30;3.50;;;;;;;;;;5109645;28;20023;-78
2021/01/28 13:42:58;;;;;;;5.57;2.85;;;;;;;;;;5107981;28;20028;-76
2021/01/28 13:45:25;;;;;;;11.85;6.65;;;;;;;;;;5107833;28;20394;-79
2021/01/28 13:47:51;;;;;;;21.48;11.60;;;;;;;;;;5108622;28;20027;-79
2021/01/28 13:50:19;;;;;;;9.10;4.25;;;;;;;;;;5098316;28;20801;-76
2021/01/28 13:52:45;;;;;;;7.18;2.80;;;;;;;;;;5086874;28;20032;-78
2021/01/28 13:55:11;;;;;;;6.93;3.60;;;;;;;;;;5104035;28;20074;-77
2021/01/28 13:57:37;;;;;;;5.53;2.70;;;;;;;;;;5088538;28;20036;-76
2021/01/28 14:00:05;;;;;;;6.85;2.50;;;;;;;;;;5087515;28;20027;-76
2021/01/28 14:02:31;;;;;;;6.20;4.28;;;;;;;;;;5086062;28;20032;-76
2021/01/28 14:04:56;;;;;;;8.55;5.57;;;;;;;;;;5086847;28;20047;-76
2021/01/28 14:07:22;;;;;;;8.30;4.40;;;;;;;;;;5090452;28;20035;-76
2021/01/28 14:09:48;;;;;;;4.43;2.20;;;;;;;;;;5090721;28;20047;-77
2021/01/28 14:12:14;;;;;;;3.63;2.00;;;;;;;;;;5087858;28;20023;-76
2021/01/28 14:14:40;;;;;;;3.63;1.80;;;;;;;;;;5087474;28;20024;-79
2021/01/28 14:17:06;;;;;;;2.95;1.70;;;;;;;;;;5087534;28;20032;-77
2021/01/28 14:19:33;;;;;;;3.50;1.73;;;;;;;;;;5087021;28;20148;-76
2021/01/28 14:21:59;;;;;;;4.00;1.65;;;;;;;;;;5090295;28;20035;-77
2021/01/28 14:24:25;;;;;;;6.53;2.20;;;;;;;;;;5092148;28;20029;-77
2021/01/28 14:26:51;;;;;;;6.47;2.00;;;;;;;;;;5089905;28;20031;-77
2021/01/28 14:29:17;;;;;;;3.72;1.92;;;;;;;;;;5092296;28;20035;-76
2021/01/28 14:31:43;;;;;;;4.53;2.75;;;;;;;;;;5092552;28;20031;-74
2021/01/28 14:34:09;;;;;;;17.13;8.02;;;;;;;;;;5090718;28;20508;-76
2021/01/28 14:36:35;;;;;;;11.00;5.47;;;;;;;;;;5084764;28;20024;-77
2021/01/28 14:39:01;;;;;;;7.50;4.35;;;;;;;;;;5091042;28;20110;-79